Time;durP1;ratioP1;P1;durP2;ratioP2;P2;SDS_P1;SDS_P2;PMS_P1;PMS_P2;Temp;Humidity;BMP_temperature;BMP_pressure;BME280_temperature;BME280_humidity;BME280_pressure;Samples;Min_cycle;Max_cycle;Signal;HPM_P1;HPM_P2
2021/08/07 00:00:14;;;;;;;;;;;;;;;;;;5062795;28;1218;-55
2021/08/07 00:02:39;;;;;;;;;;;;;;;;;;5061773;28;1270;-55
2021/08/07 00:05:04;;;;;;;;;;;;;;;;;;5061636;28;1910;-55
2021/08/07 00:07:30;;;;;;;;;;;;;;;;;;5063090;28;1619;-55
2021/08/07 00:09:55;;;;;;;;;;;;;;;;;;5062249;28;1349;-54
2021/08/07 00:12:20;;;;;;;;;;;;;;;;;;5061883;28;1607;-56
2021/08/07 00:14:45;;;;;;;;;;;;;;;;;;5060984;28;1492;-55
2021/08/07 00:17:10;;;;;;;;;;;;;;;;;;5060837;28;1439;-55
2021/08/07 00:19:36;;;;;;;;;;;;;;;;;;5061195;28;1627;-55
2021/08/07 00:22:02;;;;;;;;;;;;;;;;;;5062124;28;1225;-54
2021/08/07 00:24:27;;;;;;;;;;;;;;;;;;5060936;28;1971;-54
2021/08/07 00:26:52;;;;;;;;;;;;;;;;;;5061664;28;1546;-55
2021/08/07 00:29:17;;;;;;;;;;;;;;;;;;5060303;28;1496;-55
2021/08/07 00:31:43;;;;;;;;;;;;;;;;;;5060355;28;1214;-55
2021/08/07 00:34:08;;;;;;;;;;;;;;;;;;5062513;28;1618;-55
2021/08/07 00:36:33;;;;;;;;;;;;;;;;;;5062163;28;1182;-55
2021/08/07 00:38:58;;;;;;;;;;;;;;;;;;5061609;28;1191;-55
2021/08/07 00:41:23;;;;;;;;;;;;;;;;;;5060149;28;1634;-55
2021/08/07 00:43:49;;;;;;;;;;;;;;;;;;5060148;28;1519;-54
2021/08/07 00:46:14;;;;;;;;;;;;;;;;;;5062004;28;1971;-55
2021/08/07 00:48:39;;;;;;;;;;;;;;;;;;5061007;28;1175;-55
2021/08/07 00:51:04;;;;;;;;;;;;;;;;;;5061974;28;1233;-55
2021/08/07 00:53:29;;;;;;;;;;;;;;;;;;5057958;28;1627;-55
2021/08/07 00:55:54;;;;;;;;;;;;;;;;;;5060293;28;1584;-55
2021/08/07 00:58:20;;;;;;;;;;;;;;;;;;5059837;28;1181;-55
2021/08/07 01:00:45;;;;;;;;;;;;;;;;;;5055730;28;1662;-55
2021/08/07 01:03:13;;;;;;;;;;;;;;;;;;5058031;28;1324;-54
2021/08/07 01:05:38;;;;;;;;;;;;;;;;;;5059078;28;1950;-55
2021/08/07 01:08:13;;;;;;;;;;;;;;;;;;5060931;28;1056;-55
2021/08/07 01:10:42;;;;;;;;;;;;;;;;;;5058754;28;1620;-55
2021/08/07 01:15:46;;;;;;;;;;;;;;;;;;5079788;28;1534;-55
2021/08/07 01:18:15;;;;;;;;;;;;;;;;;;5079944;28;1140;-54
2021/08/07 01:20:58;;;;;;;;;;;;;;;;;;5067187;28;1506;-54
2021/08/07 01:23:29;;;;;;;;;;;;;;;;;;5047521;28;1287;-57
2021/08/07 01:26:07;;;;;;;;;;;;;;;;;;5087903;28;1914;-58
2021/08/07 01:28:32;;;;;;;;;;;;;;;;;;5087901;28;1285;-57
2021/08/07 01:30:58;;;;;;;;;;;;;;;;;;5088992;28;1203;-57
2021/08/07 01:33:25;;;;;;;;;;;;;;;;;;5076198;28;1586;-58
2021/08/07 01:35:50;;;;;;;;;;;;;;;;;;5089316;28;1205;-57
2021/08/07 01:38:15;;;;;;;;;;;;;;;;;;5088433;28;1432;-57
2021/08/07 01:40:40;;;;;;;;;;;;;;;;;;5090508;28;1353;-56
2021/08/07 01:43:05;;;;;;;;;;;;;;;;;;5086448;28;1685;-58
2021/08/07 01:45:31;;;;;;;;;;;;;;;;;;5088566;28;1901;-58
2021/08/07 01:47:58;;;;;;;;;;;;;;;;;;5087422;28;1193;-58
2021/08/07 01:50:29;;;;;;;;;;;;;;;;;;5082963;28;1375;-57
2021/08/07 01:52:57;;;;;;;;;;;;;;;;;;5077173;28;1473;-57
2021/08/07 01:55:36;;;;;;;;;;;;;;;;;;5089007;28;1290;-57
2021/08/07 01:58:22;;;;;;;;;;;;;;;;;;5079572;28;1577;-58
2021/08/07 02:00:48;;;;;;;;;;;;;;;;;;5087113;28;1104;-58
2021/08/07 02:03:13;;;;;;;;;;;;;;;;;;5079146;28;1304;-57
2021/08/07 02:05:38;;;;;;;;;;;;;;;;;;5080612;28;1968;-56
2021/08/07 02:08:04;;;;;;;;;;;;;;;;;;5080909;28;1231;-59
2021/08/07 02:10:29;;;;;;;;;;;;;;;;;;5080802;28;1418;-57
2021/08/07 02:12:55;;;;;;;;;;;;;;;;;;5080450;28;1569;-56
2021/08/07 02:15:20;;;;;;;;;;;;;;;;;;5077794;28;1357;-58
2021/08/07 02:17:45;;;;;;;;;;;;;;;;;;5089460;28;1289;-57
2021/08/07 02:20:16;;;;;;;;;;;;;;;;;;5087407;28;1395;-58
2021/08/07 02:22:42;;;;;;;;;;;;;;;;;;5084734;28;1582;-58
2021/08/07 02:25:07;;;;;;;;;;;;;;;;;;5089536;28;1918;-58
2021/08/07 02:27:32;;;;;;;;;;;;;;;;;;5078344;28;1620;-57
2021/08/07 02:29:58;;;;;;;;;;;;;;;;;;5079600;28;1148;-56
2021/08/07 02:32:23;;;;;;;;;;;;;;;;;;5078127;28;1282;-57
2021/08/07 02:34:48;;;;;;;;;;;;;;;;;;5088295;28;1598;-58
2021/08/07 02:37:13;;;;;;;;;;;;;;;;;;5089583;28;1163;-56
2021/08/07 02:39:38;;;;;;;;;;;;;;;;;;5083258;28;1578;-56
2021/08/07 02:42:04;;;;;;;;;;;;;;;;;;5078871;28;1503;-56
2021/08/07 02:44:29;;;;;;;;;;;;;;;;;;5088344;28;1961;-57
2021/08/07 02:46:54;;;;;;;;;;;;;;;;;;5079631;28;1361;-56
2021/08/07 02:49:19;;;;;;;;;;;;;;;;;;5084139;28;1479;-58
2021/08/07 02:51:48;;;;;;;;;;;;;;;;;;5084989;28;1516;-56
2021/08/07 02:54:13;;;;;;;;;;;;;;;;;;5086883;28;1532;-58
2021/08/07 02:56:39;;;;;;;;;;;;;;;;;;5079232;28;1634;-57
2021/08/07 02:59:04;;;;;;;;;;;;;;;;;;5086485;28;1637;-56
2021/08/07 03:01:29;;;;;;;;;;;;;;;;;;5089060;28;1147;-58
2021/08/07 03:03:54;;;;;;;;;;;;;;;;;;5089336;28;1323;-58
2021/08/07 03:06:19;;;;;;;;;;;;;;;;;;5086488;28;1909;-58
2021/08/07 03:08:45;;;;;;;;;;;;;;;;;;5087411;28;1120;-56
2021/08/07 03:11:10;;;;;;;;;;;;;;;;;;5087131;28;1570;-56
2021/08/07 03:13:35;;;;;;;;;;;;;;;;;;5084927;28;1558;-56
2021/08/07 03:16:01;;;;;;;;;;;;;;;;;;5088512;28;1222;-57
2021/08/07 03:18:26;;;;;;;;;;;;;;;;;;5086949;28;1230;-55
2021/08/07 03:20:56;;;;;;;;;;;;;;;;;;5084602;28;1531;-57
2021/08/07 03:23:22;;;;;;;;;;;;;;;;;;5085616;28;1566;-57
2021/08/07 03:25:47;;;;;;;;;;;;;;;;;;5087323;28;1961;-55
2021/08/07 03:28:12;;;;;;;;;;;;;;;;;;5091631;28;1028;-57
2021/08/07 03:30:37;;;;;;;;;;;;;;;;;;5089213;28;1440;-55
2021/08/07 03:33:02;;;;;;;;;;;;;;;;;;5088334;28;1873;-57
2021/08/07 03:35:28;;;;;;;;;;;;;;;;;;5089304;28;1574;-55
2021/08/07 03:37:53;;;;;;;;;;;;;;;;;;5089437;28;1396;-56
2021/08/07 03:40:18;;;;;;;;;;;;;;;;;;5090045;28;1167;-57
2021/08/07 03:42:44;;;;;;;;;;;;;;;;;;5081256;28;1691;-57
2021/08/07 03:45:09;;;;;;;;;;;;;;;;;;5085410;28;1993;-57
2021/08/07 03:47:44;;;;;;;;;;;;;;;;;;5091110;28;1543;-55
2021/08/07 03:50:10;;;;;;;;;;;;;;;;;;5091017;28;1321;-56
2021/08/07 03:52:35;;;;;;;;;;;;;;;;;;5087615;28;1928;-56
2021/08/07 03:55:00;;;;;;;;;;;;;;;;;;5092926;28;1248;-56
2021/08/07 03:57:25;;;;;;;;;;;;;;;;;;5088986;28;1649;-56
2021/08/07 03:59:50;;;;;;;;;;;;;;;;;;5090080;28;1036;-55
2021/08/07 04:02:16;;;;;;;;;;;;;;;;;;5091236;28;1190;-55
2021/08/07 04:04:41;;;;;;;;;;;;;;;;;;5089258;28;1906;-56
2021/08/07 04:07:06;;;;;;;;;;;;;;;;;;5089879;28;1587;-56
2021/08/07 04:09:31;;;;;;;;;;;;;;;;;;5092279;28;1136;-55
2021/08/07 04:11:56;;;;;;;;;;;;;;;;;;5089465;28;1636;-55
2021/08/07 04:14:21;;;;;;;;;;;;;;;;;;5089860;28;1349;-56
2021/08/07 04:16:47;;;;;;;;;;;;;;;;;;5088028;28;1522;-55
2021/08/07 04:19:12;;;;;;;;;;;;;;;;;;5088909;28;1164;-56
2021/08/07 04:21:37;;;;;;;;;;;;;;;;;;5077889;28;1516;-56
2021/08/07 04:24:02;;;;;;;;;;;;;;;;;;5089164;28;1381;-55
2021/08/07 04:26:27;;;;;;;;;;;;;;;;;;5086740;28;1915;-55
2021/08/07 04:28:52;;;;;;;;;;;;;;;;;;5087794;28;1637;-56
2021/08/07 04:31:18;;;;;;;;;;;;;;;;;;5090205;28;1262;-55
2021/08/07 04:33:43;;;;;;;;;;;;;;;;;;5090821;28;1361;-55
2021/08/07 04:36:08;;;;;;;;;;;;;;;;;;5090750;28;1563;-57
2021/08/07 04:38:33;;;;;;;;;;;;;;;;;;5087545;28;1100;-55
2021/08/07 04:40:58;;;;;;;;;;;;;;;;;;5089627;28;1626;-55
2021/08/07 04:43:24;;;;;;;;;;;;;;;;;;5088005;28;1271;-55
2021/08/07 04:45:49;;;;;;;;;;;;;;;;;;5087007;28;1913;-56
2021/08/07 04:48:14;;;;;;;;;;;;;;;;;;5088335;28;1278;-56
2021/08/07 04:50:39;;;;;;;;;;;;;;;;;;5084287;28;1641;-55
2021/08/07 04:53:04;;;;;;;;;;;;;;;;;;5087028;28;1546;-55
2021/08/07 04:55:29;;;;;;;;;;;;;;;;;;5088349;28;1222;-56
2021/08/07 04:57:55;;;;;;;;;;;;;;;;;;5084910;28;1606;-55
2021/08/07 05:00:20;;;;;;;;;;;;;;;;;;5086847;28;1345;-55
2021/08/07 05:02:46;;;;;;;;;;;;;;;;;;5087025;28;1545;-57
2021/08/07 05:05:11;;;;;;;;;;;;;;;;;;5088111;28;1911;-57
2021/08/07 05:07:36;;;;;;;;;;;;;;;;;;5088552;28;1306;-55
2021/08/07 05:10:02;;;;;;;;;;;;;;;;;;5089927;28;1238;-57
2021/08/07 05:12:27;;;;;;;;;;;;;;;;;;5087846;28;1545;-57
2021/08/07 05:14:55;;;;;;;;;;;;;;;;;;5087293;28;1411;-56
2021/08/07 05:17:21;;;;;;;;;;;;;;;;;;5086990;28;1064;-57
2021/08/07 05:19:46;;;;;;;;;;;;;;;;;;5086876;28;1625;-55
2021/08/07 05:22:11;;;;;;;;;;;;;;;;;;5090399;28;1198;-56
2021/08/07 05:24:36;;;;;;;;;;;;;;;;;;5084809;28;1979;-55
2021/08/07 05:27:01;;;;;;;;;;;;;;;;;;5084031;28;1613;-57
2021/08/07 05:29:27;;;;;;;;;;;;;;;;;;5084272;28;1618;-55
2021/08/07 05:31:52;;;;;;;;;;;;;;;;;;5083520;28;1684;-54
2021/08/07 05:34:17;;;;;;;;;;;;;;;;;;5088328;28;1381;-57
2021/08/07 05:36:42;;;;;;;;;;;;;;;;;;5087279;28;1645;-55
2021/08/07 05:39:07;;;;;;;;;;;;;;;;;;5087810;28;1356;-55
2021/08/07 05:41:33;;;;;;;;;;;;;;;;;;5085733;28;1608;-57
2021/08/07 05:43:58;;;;;;;;;;;;;;;;;;5087276;28;1294;-55
2021/08/07 05:46:23;;;;;;;;;;;;;;;;;;5088367;28;1902;-56
2021/08/07 05:48:54;;;;;;;;;;;;;;;;;;5083574;28;1562;-57
2021/08/07 05:51:19;;;;;;;;;;;;;;;;;;5085675;28;1353;-56
2021/08/07 05:53:44;;;;;;;;;;;;;;;;;;5087068;28;1570;-56
2021/08/07 05:56:09;;;;;;;;;;;;;;;;;;5084218;28;1543;-57
2021/08/07 05:58:37;;;;;;;;;;;;;;;;;;5087866;28;1341;-57
2021/08/07 06:01:02;;;;;;;;;;;;;;;;;;5089536;28;1162;-55
2021/08/07 06:03:28;;;;;;;;;;;;;;;;;;5089508;28;1366;-56
2021/08/07 06:05:53;;;;;;;;;;;;;;;;;;5088410;28;2020;-56
2021/08/07 06:08:18;;;;;;;;;;;;;;;;;;5089476;28;1187;-55
2021/08/07 06:10:44;;;;;;;;;;;;;;;;;;5090106;28;1131;-56
2021/08/07 06:13:09;;;;;;;;;;;;;;;;;;5087968;28;1654;-57
2021/08/07 06:15:34;;;;;;;;;;;;;;;;;;5089205;28;1363;-57
2021/08/07 06:18:00;;;;;;;;;;;;;;;;;;5085909;28;1248;-56
2021/08/07 06:20:25;;;;;;;;;;;;;;;;;;5084428;28;1641;-56
2021/08/07 06:22:51;;;;;;;;;;;;;;;;;;5085918;28;1475;-57
2021/08/07 06:25:16;;;;;;;;;;;;;;;;;;5086562;28;1902;-56
2021/08/07 06:27:41;;;;;;;;;;;;;;;;;;5086427;28;1578;-58
2021/08/07 06:30:06;;;;;;;;;;;;;;;;;;5090333;28;1179;-57
2021/08/07 06:32:32;;;;;;;;;;;;;;;;;;5088360;28;1252;-56
2021/08/07 06:34:57;;;;;;;;;;;;;;;;;;5085770;28;1542;-56
2021/08/07 06:37:22;;;;;;;;;;;;;;;;;;5088572;28;1175;-55
2021/08/07 06:39:47;;;;;;;;;;;;;;;;;;5089758;28;1360;-56
2021/08/07 06:42:12;;;;;;;;;;;;;;;;;;5087269;28;1618;-57
2021/08/07 06:44:37;;;;;;;;;;;;;;;;;;5089105;28;1974;-56
2021/08/07 06:47:03;;;;;;;;;;;;;;;;;;5084824;28;1519;-56
2021/08/07 06:49:28;;;;;;;;;;;;;;;;;;5087314;28;1168;-57
2021/08/07 06:51:53;;;;;;;;;;;;;;;;;;5086057;28;1599;-55
2021/08/07 06:54:18;;;;;;;;;;;;;;;;;;5089553;28;1460;-56
2021/08/07 06:56:48;;;;;;;;;;;;;;;;;;5087122;28;1578;-56
2021/08/07 06:59:13;;;;;;;;;;;;;;;;;;5085097;28;1563;-57
2021/08/07 07:01:38;;;;;;;;;;;;;;;;;;5087168;28;1459;-56
2021/08/07 07:04:03;;;;;;;;;;;;;;;;;;5089184;28;1362;-57
2021/08/07 07:06:28;;;;;;;;;;;;;;;;;;5092059;28;1968;-57
2021/08/07 07:08:54;;;;;;;;;;;;;;;;;;5090574;28;1545;-57
2021/08/07 07:11:19;;;;;;;;;;;;;;;;;;5093000;28;1601;-56
2021/08/07 07:13:45;;;;;;;;;;;;;;;;;;5082957;28;1506;-58
2021/08/07 07:16:11;;;;;;;;;;;;;;;;;;5092814;28;1188;-56
2021/08/07 07:18:36;;;;;;;;;;;;;;;;;;5079900;28;1607;-56
2021/08/07 07:21:01;;;;;;;;;;;;;;;;;;5091092;28;1128;-57
2021/08/07 07:23:26;;;;;;;;;;;;;;;;;;5092241;28;1299;-56
2021/08/07 07:25:52;;;;;;;;;;;;;;;;;;5091708;28;1906;-57
2021/08/07 07:28:17;;;;;;;;;;;;;;;;;;5089655;28;1522;-56
2021/08/07 07:30:42;;;;;;;;;;;;;;;;;;5089430;28;1351;-56
2021/08/07 07:33:08;;;;;;;;;;;;;;;;;;5092292;28;1154;-56
2021/08/07 07:35:33;;;;;;;;;;;;;;;;;;5092426;28;1230;-56
2021/08/07 07:37:58;;;;;;;;;;;;;;;;;;5091258;28;1606;-56
2021/08/07 07:40:23;;;;;;;;;;;;;;;;;;5091913;28;1456;-57
2021/08/07 07:42:48;;;;;;;;;;;;;;;;;;5088305;28;1594;-57
2021/08/07 07:45:14;;;;;;;;;;;;;;;;;;5091304;28;1905;-56
2021/08/07 07:47:39;;;;;;;;;;;;;;;;;;5091973;28;1183;-57
2021/08/07 07:50:04;;;;;;;;;;;;;;;;;;5090472;28;1543;-56
2021/08/07 07:52:29;;;;;;;;;;;;;;;;;;5092451;28;1183;-58
2021/08/07 07:54:55;;;;;;;;;;;;;;;;;;5091410;28;1290;-57
2021/08/07 07:57:20;;;;;;;;;;;;;;;;;;5090775;28;1622;-58
2021/08/07 07:59:45;;;;;;;;;;;;;;;;;;5091799;28;1187;-56
2021/08/07 08:02:10;;;;;;;;;;;;;;;;;;5085749;28;1588;-57
2021/08/07 08:04:36;;;;;;;;;;;;;;;;;;5092057;28;1909;-57
2021/08/07 08:07:01;;;;;;;;;;;;;;;;;;5087551;28;1577;-56
2021/08/07 08:09:27;;;;;;;;;;;;;;;;;;5090362;28;1177;-57
2021/08/07 08:11:52;;;;;;;;;;;;;;;;;;5086116;28;1534;-56
2021/08/07 08:14:17;;;;;;;;;;;;;;;;;;5089669;28;1386;-57
2021/08/07 08:16:45;;;;;;;;;;;;;;;;;;5090788;28;1139;-57
2021/08/07 08:19:11;;;;;;;;;;;;;;;;;;5032596;28;1179;-58
2021/08/07 08:21:36;;;;;;;;;;;;;;;;;;5090230;28;1722;-55
2021/08/07 08:24:01;;;;;;;;;;;;;;;;;;5087244;28;1490;-56
2021/08/07 08:26:26;;;;;;;;;;;;;;;;;;5088909;28;1938;-57
2021/08/07 08:28:51;;;;;;;;;;;;;;;;;;5090148;28;1408;-57
2021/08/07 08:31:17;;;;;;;;;;;;;;;;;;5091752;28;1186;-58
2021/08/07 08:33:42;;;;;;;;;;;;;;;;;;5086157;28;1526;-57
2021/08/07 08:36:07;;;;;;;;;;;;;;;;;;5091065;28;1167;-58
2021/08/07 08:38:32;;;;;;;;;;;;;;;;;;5091096;28;1179;-57
2021/08/07 08:40:58;;;;;;;;;;;;;;;;;;5087880;28;1586;-57
2021/08/07 08:43:23;;;;;;;;;;;;;;;;;;5086845;28;1539;-57
2021/08/07 08:45:48;;;;;;;;;;;;;;;;;;5083979;28;1909;-57
2021/08/07 08:48:13;;;;;;;;;;;;;;;;;;5087319;28;1361;-56
2021/08/07 08:50:39;;;;;;;;;;;;;;;;;;5081378;28;1183;-57
2021/08/07 08:53:04;;;;;;;;;;;;;;;;;;5081446;28;1713;-56
2021/08/07 08:55:29;;;;;;;;;;;;;;;;;;5082206;28;1225;-57
2021/08/07 08:57:54;;;;;;;;;;;;;;;;;;5086492;28;1518;-57
2021/08/07 09:00:19;;;;;;;;;;;;;;;;;;5091502;28;1206;-57
2021/08/07 09:02:45;;;;;;;;;;;;;;;;;;5079290;28;1172;-56
2021/08/07 09:05:10;;;;;;;;;;;;;;;;;;5084967;28;1897;-58
2021/08/07 09:07:35;;;;;;;;;;;;;;;;;;5089433;28;1100;-57
2021/08/07 09:10:01;;;;;;;;;;;;;;;;;;5090814;28;1179;-56
2021/08/07 09:12:41;;;;;;;;;;;;;;;;;;5087255;28;1587;-56
2021/08/07 09:15:23;;;;;;;;;;;;;;;;;;5088135;28;1609;-58
2021/08/07 09:17:48;;;;;;;;;;;;;;;;;;5087747;28;1203;-57
2021/08/07 09:20:13;;;;;;;;;;;;;;;;;;5090084;28;1116;-56
2021/08/07 09:22:39;;;;;;;;;;;;;;;;;;5089028;28;1393;-56
2021/08/07 09:25:08;;;;;;;;;;;;;;;;;;5082286;28;1977;-58
2021/08/07 09:27:33;;;;;;;;;;;;;;;;;;5088750;28;1579;-57
2021/08/07 09:29:59;;;;;;;;;;;;;;;;;;5091017;28;1298;-57
2021/08/07 09:32:24;;;;;;;;;;;;;;;;;;5084061;28;1308;-58
2021/08/07 09:35:05;;;;;;;;;;;;;;;;;;5084952;28;1583;-57
2021/08/07 09:37:30;;;;;;;;;;;;;;;;;;5087763;28;1088;-57
2021/08/07 09:39:57;;;;;;;;;;;;;;;;;;5089033;28;1333;-57
2021/08/07 09:42:22;;;;;;;;;;;;;;;;;;5083458;28;1628;-58
2021/08/07 09:45:00;;;;;;;;;;;;;;;;;;5085234;28;1957;-57
2021/08/07 09:47:26;;;;;;;;;;;;;;;;;;5087710;28;1369;-57
2021/08/07 09:49:51;;;;;;;;;;;;;;;;;;5085901;28;1542;-57
2021/08/07 09:52:17;;;;;;;;;;;;;;;;;;5086623;28;1624;-58
2021/08/07 09:54:43;;;;;;;;;;;;;;;;;;5086026;28;1362;-58
2021/08/07 09:57:10;;;;;;;;;;;;;;;;;;5086988;28;1602;-57
2021/08/07 09:59:43;;;;;;;;;;;;;;;;;;5090253;28;1203;-56
2021/08/07 10:02:38;;;;;;;;;;;;;;;;;;5086102;28;1232;-57
2021/08/07 10:05:08;;;;;;;;;;;;;;;;;;5072246;28;1914;-57
2021/08/07 10:07:33;;;;;;;;;;;;;;;;;;5085814;28;1554;-55
2021/08/07 10:09:58;;;;;;;;;;;;;;;;;;5089737;28;1127;-57
2021/08/07 10:12:24;;;;;;;;;;;;;;;;;;5080599;28;1625;-56
2021/08/07 10:14:49;;;;;;;;;;;;;;;;;;5089876;28;1381;-56
2021/08/07 10:17:15;;;;;;;;;;;;;;;;;;5082225;28;1559;-56
2021/08/07 10:19:40;;;;;;;;;;;;;;;;;;5088512;28;1199;-57
2021/08/07 10:22:06;;;;;;;;;;;;;;;;;;5088946;28;1156;-56
2021/08/07 10:24:32;;;;;;;;;;;;;;;;;;5090149;28;1975;-58
2021/08/07 10:26:58;;;;;;;;;;;;;;;;;;5084562;28;1695;-56
2021/08/07 10:29:33;;;;;;;;;;;;;;;;;;5082044;28;1657;-57
2021/08/07 10:31:58;;;;;;;;;;;;;;;;;;5088450;28;1088;-56
2021/08/07 10:34:24;;;;;;;;;;;;;;;;;;5080448;28;1331;-57
2021/08/07 10:36:49;;;;;;;;;;;;;;;;;;5089796;28;1610;-57
2021/08/07 10:39:15;;;;;;;;;;;;;;;;;;5090973;28;1404;-56
2021/08/07 10:41:41;;;;;;;;;;;;;;;;;;5089473;28;1633;-56
2021/08/07 10:44:06;;;;;;;;;;;;;;;;;;5083980;28;1389;-56
2021/08/07 10:46:31;;;;;;;;;;;;;;;;;;5086040;28;1902;-58
2021/08/07 10:48:56;;;;;;;;;;;;;;;;;;5086538;28;1549;-56
2021/08/07 10:51:21;;;;;;;;;;;;;;;;;;5089164;28;1348;-56
2021/08/07 10:53:47;;;;;;;;;;;;;;;;;;5089165;28;1311;-57
2021/08/07 10:56:32;;;;;;;;;;;;;;;;;;5090825;28;1617;-58
2021/08/07 10:59:09;;;;;;;;;;;;;;;;;;5088218;28;1558;-57
2021/08/07 11:01:34;;;;;;;;;;;;;;;;;;5088315;28;1101;-56
2021/08/07 11:04:03;;;;;;;;;;;;;;;;;;5091949;28;1398;-57
2021/08/07 11:06:47;;;;;;;;;;;;;;;;;;5093069;28;1906;-56
2021/08/07 11:09:21;;;;;;;;;;;;;;;;;;5090202;28;1622;-58
2021/08/07 11:11:47;;;;;;;;;;;;;;;;;;5090298;28;1570;-56
2021/08/07 11:14:33;;;;;;;;;;;;;;;;;;5092249;28;1363;-57
2021/08/07 11:17:04;;;;;;;;;;;;;;;;;;5077363;28;1503;-56
2021/08/07 11:19:51;;;;;;;;;;;;;;;;;;5089320;28;1159;-57
2021/08/07 11:22:16;;;;;;;;;;;;;;;;;;5087543;28;1578;-57
2021/08/07 11:24:47;;;;;;;;;;;;;;;;;;5087059;28;1906;-56
2021/08/07 11:27:12;;;;;;;;;;;;;;;;;;5087360;28;1494;-57
2021/08/07 11:30:07;;;;;;;;;;;;;;;;;;5093143;28;1135;-57
2021/08/07 11:32:32;;;;;;;;;;;;;;;;;;5080005;28;1417;-57
2021/08/07 11:34:57;;;;;;;;;;;;;;;;;;5081807;28;1605;-58
2021/08/07 11:37:24;;;;;;;;;;;;;;;;;;5081494;28;1212;-57
2021/08/07 11:40:11;;;;;;;;;;;;;;;;;;5088911;28;1163;-57
2021/08/07 11:42:37;;;;;;;;;;;;;;;;;;5090111;28;1641;-57
2021/08/07 11:45:03;;;;;;;;;;;;;;;;;;5087883;28;1906;-58
2021/08/07 11:47:28;;;;;;;;;;;;;;;;;;5089620;28;1044;-57
2021/08/07 11:49:53;;;;;;;;;;;;;;;;;;5088057;28;1550;-56
2021/08/07 11:52:18;;;;;;;;;;;;;;;;;;5088316;28;1723;-57
2021/08/07 11:54:44;;;;;;;;;;;;;;;;;;5082194;28;1370;-58
2021/08/07 11:57:22;;;;;;;;;;;;;;;;;;5081181;28;1608;-58
2021/08/07 11:59:47;;;;;;;;;;;;;;;;;;5090824;28;1201;-58
2021/08/07 12:02:13;;;;;;;;;;;;;;;;;;5092066;28;1186;-57
2021/08/07 12:04:39;;;;;;;;;;;;;;;;;;5089911;28;1897;-56
2021/08/07 12:07:08;;;;;;;;;;;;;;;;;;5081891;28;1565;-58
2021/08/07 12:09:34;;;;;;;;;;;;;;;;;;5091056;28;1212;-56
2021/08/07 12:12:00;;;;;;;;;;;;;;;;;;5091684;28;1637;-58
2021/08/07 12:14:26;;;;;;;;;;;;;;;;;;5088538;28;1396;-57
2021/08/07 12:16:51;;;;;;;;;;;;;;;;;;5089372;28;1192;-57
2021/08/07 12:19:17;;;;;;;;;;;;;;;;;;5081889;28;1156;-56
2021/08/07 12:21:42;;;;;;;;;;;;;;;;;;5088482;28;1571;-56
2021/08/07 12:24:11;;;;;;;;;;;;;;;;;;5092142;28;1280;-58
2021/08/07 12:26:42;;;;;;;;;;;;;;;;;;5089015;28;1906;-56
2021/08/07 12:29:08;;;;;;;;;;;;;;;;;;5088167;28;1515;-56
2021/08/07 12:31:40;;;;;;;;;;;;;;;;;;5083994;28;1538;-57
2021/08/07 12:34:31;;;;;;;;;;;;;;;;;;5086860;28;1554;-56
2021/08/07 12:36:59;;;;;;;;;;;;;;;;;;5088181;28;2103;-56
2021/08/07 12:39:24;;;;;;;;;;;;;;;;;;5089975;28;1136;-58
2021/08/07 12:41:49;;;;;;;;;;;;;;;;;;5079247;28;1633;-56
2021/08/07 12:44:24;;;;;;;;;;;;;;;;;;5083890;28;1777;-56
2021/08/07 12:46:50;;;;;;;;;;;;;;;;;;5089410;28;1976;-56
2021/08/07 12:49:30;;;;;;;;;;;;;;;;;;5090112;28;1551;-57
2021/08/07 12:51:59;;;;;;;;;;;;;;;;;;5085822;28;1563;-56
2021/08/07 12:54:24;;;;;;;;;;;;;;;;;;5088670;28;1235;-56
2021/08/07 12:56:49;;;;;;;;;;;;;;;;;;5086974;28;1661;-54
2021/08/07 12:59:17;;;;;;;;;;;;;;;;;;5089373;28;985;-56
2021/08/07 13:01:56;;;;;;;;;;;;;;;;;;5090109;28;1104;-58
2021/08/07 13:04:21;;;;;;;;;;;;;;;;;;5083423;28;1421;-56
2021/08/07 13:06:59;;;;;;;;;;;;;;;;;;5088309;28;1965;-56
2021/08/07 13:09:24;;;;;;;;;;;;;;;;;;5090095;28;1189;-56
2021/08/07 13:12:06;;;;;;;;;;;;;;;;;;5089459;28;1602;-56
2021/08/07 13:14:31;;;;;;;;;;;;;;;;;;5118747;22;2007;-57
2021/08/07 13:16:57;;;;;;;;;;;;;;;;;;5102573;28;1409;-56
2021/08/07 13:19:23;;;;;;;;;;;;;;;;;;5102250;28;1752;-57
2021/08/07 13:21:49;;;;;;;;;;;;;;;;;;5099557;28;1758;-57
2021/08/07 13:24:27;;;;;;;;;;;;;;;;;;5096904;28;1464;-57
2021/08/07 13:26:52;;;;;;;;;;;;;;;;;;5079300;28;1969;-57
2021/08/07 13:29:17;;;;;;;;;;;;;;;;;;5081818;28;1021;-57
2021/08/07 13:31:42;;;;;;;;;;;;;;;;;;5079266;28;1513;-57
2021/08/07 13:34:08;;;;;;;;;;;;;;;;;;5060228;28;1493;-57
2021/08/07 13:36:33;;;;;;;;;;;;;;;;;;5079940;28;1125;-56
2021/08/07 13:38:58;;;;;;;;;;;;;;;;;;5080993;28;1387;-58
2021/08/07 13:41:23;;;;;;;;;;;;;;;;;;5078355;28;1596;-57
2021/08/07 13:43:48;;;;;;;;;;;;;;;;;;5079888;28;1476;-58
2021/08/07 13:46:14;;;;;;;;;;;;;;;;;;5081772;28;1906;-57
2021/08/07 13:48:40;;;;;;;;;;;;;;;;;;5084110;28;1174;-57
2021/08/07 13:51:05;;;;;;;;;;;;;;;;;;5081110;28;1677;-57
2021/08/07 13:53:30;;;;;;;;;;;;;;;;;;5079652;28;1613;-57
2021/08/07 13:55:55;;;;;;;;;;;;;;;;;;5079745;28;1600;-57
2021/08/07 13:58:20;;;;;;;;;;;;;;;;;;5078157;28;1489;-57
2021/08/07 14:00:46;;;;;;;;;;;;;;;;;;5080670;28;1184;-56
2021/08/07 14:03:11;;;;;;;;;;;;;;;;;;5064036;28;1426;-57
2021/08/07 14:05:36;;;;;;;;;;;;;;;;;;5080146;28;1917;-57
2021/08/07 14:08:01;;;;;;;;;;;;;;;;;;5077428;28;1569;-58
2021/08/07 14:10:27;;;;;;;;;;;;;;;;;;5077831;28;1413;-56
2021/08/07 14:12:52;;;;;;;;;;;;;;;;;;5076237;28;1568;-57
2021/08/07 14:15:17;;;;;;;;;;;;;;;;;;5078465;28;1284;-57
2021/08/07 14:17:42;;;;;;;;;;;;;;;;;;5079326;28;1190;-57
2021/08/07 14:20:08;;;;;;;;;;;;;;;;;;5077383;28;1570;-56
2021/08/07 14:22:33;;;;;;;;;;;;;;;;;;5080006;28;1325;-57
2021/08/07 14:24:58;;;;;;;;;;;;;;;;;;5080364;28;1985;-57
2021/08/07 14:27:23;;;;;;;;;;;;;;;;;;5080551;28;1604;-58
2021/08/07 14:29:48;;;;;;;;;;;;;;;;;;5078624;28;1183;-57
2021/08/07 14:32:14;;;;;;;;;;;;;;;;;;5078536;28;1302;-58
2021/08/07 14:34:39;;;;;;;;;;;;;;;;;;5079662;28;1297;-57
2021/08/07 14:37:04;;;;;;;;;;;;;;;;;;5078722;28;1565;-57
2021/08/07 14:39:29;;;;;;;;;;;;;;;;;;5078471;28;1674;-57
2021/08/07 14:41:54;;;;;;;;;;;;;;;;;;5079032;28;1529;-58
2021/08/07 14:44:19;;;;;;;;;;;;;;;;;;5081211;28;1328;-57
2021/08/07 14:46:45;;;;;;;;;;;;;;;;;;5079760;28;1974;-57
2021/08/07 14:49:10;;;;;;;;;;;;;;;;;;5080363;28;1334;-57
2021/08/07 14:51:35;;;;;;;;;;;;;;;;;;5078883;28;1605;-57
2021/08/07 14:54:00;;;;;;;;;;;;;;;;;;5080060;28;1398;-57
2021/08/07 14:56:26;;;;;;;;;;;;;;;;;;5079036;28;1605;-57
2021/08/07 14:58:51;;;;;;;;;;;;;;;;;;5079847;28;1182;-57
2021/08/07 15:01:19;;;;;;;;;;;;;;;;;;5079479;28;1271;-57
2021/08/07 15:03:45;;;;;;;;;;;;;;;;;;5077764;28;1573;-57
2021/08/07 15:06:10;;;;;;;;;;;;;;;;;;5079751;28;1910;-57
2021/08/07 15:08:35;;;;;;;;;;;;;;;;;;5079358;28;1511;-56
2021/08/07 15:11:00;;;;;;;;;;;;;;;;;;5080028;28;1802;-56
2021/08/07 15:13:27;;;;;;;;;;;;;;;;;;5078236;28;1569;-55
2021/08/07 15:15:53;;;;;;;;;;;;;;;;;;5079730;28;1356;-56
2021/08/07 15:18:18;;;;;;;;;;;;;;;;;;5078254;28;1133;-55
2021/08/07 15:20:43;;;;;;;;;;;;;;;;;;5080115;28;1755;-55
2021/08/07 15:23:08;;;;;;;;;;;;;;;;;;5080383;28;1160;-55
2021/08/07 15:25:33;;;;;;;;;;;;;;;;;;5082116;28;1910;-55
2021/08/07 15:27:59;;;;;;;;;;;;;;;;;;5083988;28;1708;-56
2021/08/07 15:30:24;;;;;;;;;;;;;;;;;;5082907;28;1038;-55
2021/08/07 15:32:49;;;;;;;;;;;;;;;;;;5082076;28;1172;-56
2021/08/07 15:35:15;;;;;;;;;;;;;;;;;;5082185;28;1623;-55
2021/08/07 15:37:40;;;;;;;;;;;;;;;;;;5082049;28;1021;-55
2021/08/07 15:40:06;;;;;;;;;;;;;;;;;;5065433;28;1733;-56
2021/08/07 15:42:32;;;;;;;;;;;;;;;;;;5080741;28;1593;-56
2021/08/07 15:44:57;;;;;;;;;;;;;;;;;;5080626;28;1902;-56
2021/08/07 15:47:22;;;;;;;;;;;;;;;;;;5083357;28;1222;-56
2021/08/07 15:49:47;;;;;;;;;;;;;;;;;;5082181;28;1105;-56
2021/08/07 15:52:12;;;;;;;;;;;;;;;;;;5081195;28;1303;-54
2021/08/07 15:54:38;;;;;;;;;;;;;;;;;;5084558;28;1564;-56
2021/08/07 15:57:03;;;;;;;;;;;;;;;;;;5081657;28;1601;-55
2021/08/07 15:59:28;;;;;;;;;;;;;;;;;;5082904;28;1463;-55
2021/08/07 16:01:53;;;;;;;;;;;;;;;;;;5081734;28;1180;-55
2021/08/07 16:04:18;;;;;;;;;;;;;;;;;;5083467;28;1311;-55
2021/08/07 16:06:44;;;;;;;;;;;;;;;;;;5082910;28;1913;-56
2021/08/07 16:09:09;;;;;;;;;;;;;;;;;;5081560;28;1160;-56
2021/08/07 16:11:38;;;;;;;;;;;;;;;;;;5082221;28;1616;-56
2021/08/07 16:14:03;;;;;;;;;;;;;;;;;;5082329;28;1396;-55
2021/08/07 16:16:28;;;;;;;;;;;;;;;;;;5081299;28;1092;-55
2021/08/07 16:18:54;;;;;;;;;;;;;;;;;;5081209;28;1579;-56
2021/08/07 16:21:19;;;;;;;;;;;;;;;;;;5081506;28;1169;-56
2021/08/07 16:23:44;;;;;;;;;;;;;;;;;;5063914;28;1424;-56
2021/08/07 16:26:10;;;;;;;;;;;;;;;;;;5081468;28;1987;-55
2021/08/07 16:28:35;;;;;;;;;;;;;;;;;;5080977;28;1306;-56
2021/08/07 16:31:00;;;;;;;;;;;;;;;;;;5081355;28;1128;-56
2021/08/07 16:33:25;;;;;;;;;;;;;;;;;;5080877;28;1247;-55
2021/08/07 16:35:51;;;;;;;;;;;;;;;;;;5081145;28;1604;-56
2021/08/07 16:38:16;;;;;;;;;;;;;;;;;;5081854;28;1172;-55
2021/08/07 16:40:41;;;;;;;;;;;;;;;;;;5081788;28;1183;-55
2021/08/07 16:43:06;;;;;;;;;;;;;;;;;;5082335;28;1624;-56
2021/08/07 16:45:31;;;;;;;;;;;;;;;;;;5081145;28;2237;-54
2021/08/07 16:47:59;;;;;;;;;;;;;;;;;;5081038;28;1234;-56
2021/08/07 16:50:24;;;;;;;;;;;;;;;;;;5078555;28;1659;-54
2021/08/07 16:52:50;;;;;;;;;;;;;;;;;;5082128;28;1277;-56
2021/08/07 16:55:15;;;;;;;;;;;;;;;;;;5081732;28;1302;-55
2021/08/07 16:57:40;;;;;;;;;;;;;;;;;;5079541;28;1505;-56
2021/08/07 17:00:05;;;;;;;;;;;;;;;;;;5079736;28;1267;-55